Chitose — JD2925 — position and weather

sailwx.info

Track history (hours):
 
Tides and Currents Weather Stations Pressure Air Temp Water Temp Dewpoint Dewpoint Depression Visibility Wind Speed Wind Dir Waves Ship Positions

Chitose

Last reported at 2015-Apr-02 00:34 UTC. Time now 2015-Apr-02 06:39 UTC.
Position N 35°27' E 139°41'.

Length 33 m; draft 3.8 m.

Type: Tug. MMSI: 431000953.

Date/timePositionNaut miles runAvg speedWind from/ knotsBaromVisibWave heightAir tempDewpointWater temp
2015-Apr-02 00:34N 35°27' E 139°41'0 0.2
2015-Apr-01 23:34N 35°27' E 139°41'3 2.8
2015-Apr-01 22:33N 35°26' E 139°44'4 3.9
2015-Apr-01 21:33N 35°27' E 139°39'0 0.0
2015-Apr-01 20:33N 35°27' E 139°39'1 1.4
2015-Apr-01 19:33N 35°26' E 139°41'1 1.4
2015-Apr-01 18:33N 35°28' E 139°41'0 0.0
2015-Apr-01 17:34N 35°28' E 139°41'0 0.0
2015-Apr-01 16:34N 35°28' E 139°41'0 0.0
2015-Apr-01 15:34N 35°28' E 139°41'1 0.9
2015-Apr-01 14:33N 35°28' E 139°42'2 1.8
2015-Apr-01 13:33N 35°27' E 139°39'0 0.0
2015-Apr-01 12:33N 35°27' E 139°39'0 0.0
2015-Apr-01 11:33N 35°27' E 139°39'1 1.4
2015-Apr-01 10:33N 35°27' E 139°41'1 1.3
2015-Apr-01 09:33N 35°27' E 139°43'0 0.0
2015-Apr-01 08:33N 35°27' E 139°43'2 2.5
2015-Apr-01 07:33N 35°28' E 139°40'1 1.1
2015-Apr-01 06:34N 35°27' E 139°39'0 0.0
2015-Apr-01 05:33N 35°27' E 139°39'0 0.0
2015-Apr-01 04:33N 35°27' E 139°39'0 0.0
2015-Apr-01 03:33N 35°27' E 139°39'0 0.0
2015-Apr-01 02:34N 35°27' E 139°39'0 0.0
2015-Apr-01 01:33N 35°27' E 139°39'0 0.0
2015-Apr-01 00:33N 35°27' E 139°39'0 0.0
2015-Mar-31 23:34N 35°27' E 139°39'0 0.0
2015-Mar-31 22:33N 35°27' E 139°39'1 0.8
2015-Mar-31 21:33N 35°27' E 139°39'0 0.0
2015-Mar-31 20:33N 35°27' E 139°39'0 0.0
2015-Mar-31 19:33N 35°27' E 139°39'0 0.0
2015-Mar-31 18:34N 35°27' E 139°39'0 0.0
2015-Mar-31 17:33N 35°27' E 139°39'0 0.0
2015-Mar-31 16:34N 35°27' E 139°39'0 0.0
2015-Mar-31 15:33N 35°27' E 139°39'0 0.0
2015-Mar-31 14:33N 35°27' E 139°39'0 0.0
2015-Mar-31 13:34N 35°27' E 139°39'0 0.0
2015-Mar-31 12:34N 35°27' E 139°39'0 0.0
2015-Mar-31 11:33N 35°27' E 139°39'0 0.0
2015-Mar-31 10:33N 35°27' E 139°39'0 0.0
2015-Mar-31 09:33N 35°27' E 139°39'0 0.0
2015-Mar-31 08:33N 35°27' E 139°39'0 0.0
2015-Mar-31 07:33N 35°27' E 139°39'1 0.8
2015-Mar-31 06:33N 35°28' E 139°40'1 1.0
2015-Mar-31 05:33N 35°27' E 139°41'1 0.8
2015-Mar-31 04:33N 35°27' E 139°41'3 3.0
2015-Mar-31 03:33N 35°28' E 139°44'4 3.7
2015-Mar-31 02:34N 35°27' E 139°40'1 1.0
2015-Mar-31 01:34N 35°27' E 139°39'4 4.0
2015-Mar-31 00:34N 35°27' E 139°43'3 3.1
2015-Mar-30 23:33N 35°30' E 139°45'5 4.5
2015-Mar-30 22:33N 35°27' E 139°41'2 2.2
2015-Mar-30 21:34N 35°27' E 139°39'0 0.0
2015-Mar-30 07:10N 35°27' E 139°39'0 0.0
2015-Mar-30 06:33N 35°27' E 139°39'0 0.0
2015-Mar-30 05:34N 35°27' E 139°39'0 0.0
2015-Mar-30 04:33N 35°27' E 139°39'2 1.6
2015-Mar-30 03:34N 35°27' E 139°41'3 2.9
2015-Mar-30 02:33N 35°25' E 139°43'1 1.4
2015-Mar-30 01:34N 35°26' E 139°42'0 0.0
2015-Mar-30 00:34N 35°26' E 139°42'0 0.1
2015-Mar-29 23:33N 35°26' E 139°42'0 0.0
2015-Mar-29 22:34N 35°26' E 139°42'1 0.9
2015-Mar-29 21:34N 35°27' E 139°42'2 1.7
2015-Mar-29 20:34N 35°27' E 139°40'1 0.8
2015-Mar-29 19:33N 35°27' E 139°39'0 0.0
2015-Mar-29 18:33N 35°27' E 139°39'0 0.0
2015-Mar-29 17:33N 35°27' E 139°39'0 0.0
2015-Mar-29 16:33N 35°27' E 139°39'0 0.0
2015-Mar-29 15:33N 35°27' E 139°39'0 0.0
2015-Mar-29 14:33N 35°27' E 139°39'0 0.0
2015-Mar-29 13:33N 35°27' E 139°39'0 0.0
2015-Mar-29 12:33N 35°27' E 139°39'0 0.0
2015-Mar-29 11:33N 35°27' E 139°39'0 0.0
2015-Mar-29 10:33N 35°27' E 139°39'0 0.0
2015-Mar-29 09:33N 35°27' E 139°39'0 0.0
2015-Mar-29 08:33N 35°27' E 139°39'7 6.6
2015-Mar-29 07:33N 35°30' E 139°46'0 0.3
2015-Mar-29 06:34N 35°30' E 139°46'0 0.1
2015-Mar-29 05:34N 35°30' E 139°47'6 6.0
2015-Mar-29 04:29N 35°27' E 139°39'0 0.1
2015-Mar-29 03:33N 35°27' E 139°39'0 0.1
2015-Mar-29 02:34N 35°27' E 139°39'8 8.2
2015-Mar-29 01:33N 35°30' E 139°49'8 7.7
2015-Mar-29 00:33N 35°28' E 139°58'2 2.1
2015-Mar-28 23:33N 35°29' E 139°56'1211.9
2015-Mar-28 22:33N 35°27' E 139°41'2 0.1
2015-Mar-27 22:34N 35°27' E 139°39'2 2.0
2015-Mar-27 21:33N 35°27' E 139°41'1 0.7
2015-Mar-27 20:33N 35°27' E 139°42'1 1.4
2015-Mar-27 19:33N 35°28' E 139°43'3 3.3
2015-Mar-27 18:33N 35°27' E 139°39'0 0.0
2015-Mar-27 17:33N 35°27' E 139°39'0 0.0
2015-Mar-27 16:33N 35°27' E 139°39'0 0.0
2015-Mar-27 15:33N 35°27' E 139°39'0 0.0
2015-Mar-27 14:33N 35°27' E 139°39'0 0.0
2015-Mar-27 13:33N 35°27' E 139°39'0 0.0
2015-Mar-27 12:33N 35°27' E 139°39'0 0.0
2015-Mar-27 11:33N 35°27' E 139°39'0 0.4
2015-Mar-27 10:33N 35°28' E 139°39'3 3.4
2015-Mar-27 09:33N 35°26' E 139°43'1 0.5
2015-Mar-27 08:33N 35°27' E 139°43'0 0.0
2015-Mar-27 07:33N 35°27' E 139°43'0 0.0
2015-Mar-27 06:34N 35°27' E 139°43'2 1.6
2015-Mar-27 05:34N 35°26' E 139°41'2 2.1
2015-Mar-27 04:33N 35°27' E 139°39'0 0.0
2015-Mar-27 03:33N 35°27' E 139°39'0 0.0
2015-Mar-27 02:33N 35°27' E 139°39'0 0.0
2015-Mar-27 01:33N 35°27' E 139°39'0 0.0
2015-Mar-27 00:33N 35°27' E 139°39'3 3.4
2015-Mar-26 23:33N 35°28' E 139°43'2 1.6
2015-Mar-26 22:33N 35°27' E 139°43'4 3.9
2015-Mar-26 21:33N 35°27' E 139°39'0 0.0
2015-Mar-26 20:33N 35°27' E 139°39'0 0.0
2015-Mar-26 10:32N 35°27' E 139°39'3 3.5
2015-Mar-26 09:32N 35°26' E 139°42'1 1.0
2015-Mar-26 08:33N 35°27' E 139°42'1 0.6
2015-Mar-26 07:33N 35°27' E 139°41'2 2.2
2015-Mar-26 06:33N 35°27' E 139°39'0 0.0
2015-Mar-26 05:33N 35°27' E 139°39'0 0.0
2015-Mar-26 04:33N 35°27' E 139°39'0 0.0
2015-Mar-26 03:33N 35°27' E 139°39'0 0.0
2015-Mar-26 02:33N 35°27' E 139°39'0 0.0
2015-Mar-26 01:33N 35°27' E 139°39'4 4.0
2015-Mar-26 00:33N 35°28' E 139°43'3 2.5
2015-Mar-25 23:33N 35°27' E 139°40'1 1.0
2015-Mar-25 22:05N 35°27' E 139°39'0 0.0
2015-Mar-25 21:33N 35°27' E 139°39'0 0.0
2015-Mar-25 20:33N 35°27' E 139°39'0 0.0
2015-Mar-25 19:33N 35°27' E 139°39'0 0.0
2015-Mar-25 18:33N 35°27' E 139°39'0 0.0
2015-Mar-25 17:33N 35°27' E 139°39'0 0.0
2015-Mar-25 16:33N 35°27' E 139°39'0 0.0
2015-Mar-25 15:33N 35°27' E 139°39'0 0.0
2015-Mar-25 14:33N 35°27' E 139°39'0 0.0
2015-Mar-25 13:10N 35°27' E 139°39'0 0.0
2015-Mar-25 12:33N 35°27' E 139°39'0 0.0
2015-Mar-25 11:34N 35°27' E 139°39'0 0.0
2015-Mar-25 10:34N 35°27' E 139°39'0 0.0
2015-Mar-25 09:33N 35°27' E 139°39'0 0.0
2015-Mar-25 08:34N 35°27' E 139°39'0 0.0
2015-Mar-25 07:33N 35°27' E 139°39'0 0.0
2015-Mar-25 06:33N 35°27' E 139°39'0 0.0
2015-Mar-25 05:34N 35°27' E 139°39'0 0.0
2015-Mar-25 04:33N 35°27' E 139°39'0 0.0
2015-Mar-25 03:34N 35°27' E 139°39'0 0.0
2015-Mar-25 02:33N 35°27' E 139°39'3 2.6
2015-Mar-25 01:33N 35°27' E 139°42'4 3.9
2015-Mar-25 00:33N 35°24' E 139°38'0 0.3
2015-Mar-24 23:33N 35°24' E 139°38'3 3.3
2015-Mar-24 22:33N 35°27' E 139°40'4 4.4
2015-Mar-24 21:33N 35°29' E 139°45'3 2.7
2015-Mar-24 20:34N 35°28' E 139°42'1 1.5
2015-Mar-24 19:34N 35°27' E 139°43'3 2.8
2015-Mar-24 18:33N 35°27' E 139°39'0 0.0
2015-Mar-24 17:33N 35°27' E 139°39'6 6.2
2015-Mar-24 16:34N 35°30' E 139°46'0 0.1
2015-Mar-24 15:33N 35°30' E 139°46'7 7.3
2015-Mar-24 14:34N 35°24' E 139°41'0 0.1
2015-Mar-24 13:34N 35°24' E 139°41'1 0.9
2015-Mar-24 12:33N 35°23' E 139°40'3 2.7
2015-Mar-24 11:33N 35°26' E 139°41'1 1.2
2015-Mar-24 10:33N 35°26' E 139°42'2 1.7
2015-Mar-24 09:34N 35°26' E 139°44'1 0.9
2015-Mar-24 08:33N 35°27' E 139°44'3 2.6
2015-Mar-24 07:33N 35°27' E 139°40'1 0.8
2015-Mar-24 06:33N 35°27' E 139°39'0 0.0
2015-Mar-24 05:33N 35°27' E 139°39'1 0.9
2015-Mar-24 04:33N 35°27' E 139°40'2 1.6
2015-Mar-24 03:34N 35°27' E 139°39'0 0.2
2015-Mar-24 02:33N 35°27' E 139°39'0 0.0
2015-Mar-24 01:34N 35°27' E 139°39'0 0.0
2015-Mar-24 00:33N 35°27' E 139°39'0 0.0
2015-Mar-23 23:34N 35°27' E 139°39'0 0.0
2015-Mar-23 22:33N 35°27' E 139°39'0 0.0
2015-Mar-23 06:30N 35°27' E 139°39'0 0.0
2015-Mar-23 05:33N 35°27' E 139°39'0 0.0
2015-Mar-23 04:33N 35°27' E 139°39'0 0.0
2015-Mar-23 03:33N 35°27' E 139°39'0 0.0
2015-Mar-23 02:33N 35°27' E 139°39'3 2.9
2015-Mar-23 01:33N 35°26' E 139°42'  
Track history (hours):
 
Tides and Currents Weather Stations Pressure Air Temp Water Temp Dewpoint Dewpoint Depression Visibility Wind Speed Wind Dir Waves Ship Positions

Chitose

Last reported at 2015-Apr-02 00:34 UTC. Time now 2015-Apr-02 06:39 UTC.
Position N 35°27' E 139°41'.

Length 33 m; draft 3.8 m.

Type: Tug. MMSI: 431000953.

Date/timePositionNaut miles runAvg speedWind from/ knotsBaromVisibWave heightAir tempDewpointWater temp
2015-Apr-02 00:34N 35°27' E 139°41'0 0.2
2015-Apr-01 23:34N 35°27' E 139°41'3 2.8
2015-Apr-01 22:33N 35°26' E 139°44'4 3.9
2015-Apr-01 21:33N 35°27' E 139°39'0 0.0
2015-Apr-01 20:33N 35°27' E 139°39'1 1.4
2015-Apr-01 19:33N 35°26' E 139°41'1 1.4
2015-Apr-01 18:33N 35°28' E 139°41'0 0.0
2015-Apr-01 17:34N 35°28' E 139°41'0 0.0
2015-Apr-01 16:34N 35°28' E 139°41'0 0.0
2015-Apr-01 15:34N 35°28' E 139°41'1 0.9
2015-Apr-01 14:33N 35°28' E 139°42'2 1.8
2015-Apr-01 13:33N 35°27' E 139°39'0 0.0
2015-Apr-01 12:33N 35°27' E 139°39'0 0.0
2015-Apr-01 11:33N 35°27' E 139°39'1 1.4
2015-Apr-01 10:33N 35°27' E 139°41'1 1.3
2015-Apr-01 09:33N 35°27' E 139°43'0 0.0
2015-Apr-01 08:33N 35°27' E 139°43'2 2.5
2015-Apr-01 07:33N 35°28' E 139°40'1 1.1
2015-Apr-01 06:34N 35°27' E 139°39'0 0.0
2015-Apr-01 05:33N 35°27' E 139°39'0 0.0
2015-Apr-01 04:33N 35°27' E 139°39'0 0.0
2015-Apr-01 03:33N 35°27' E 139°39'0 0.0
2015-Apr-01 02:34N 35°27' E 139°39'0 0.0
2015-Apr-01 01:33N 35°27' E 139°39'0 0.0
2015-Apr-01 00:33N 35°27' E 139°39'0 0.0
2015-Mar-31 23:34N 35°27' E 139°39'0 0.0
2015-Mar-31 22:33N 35°27' E 139°39'1 0.8
2015-Mar-31 21:33N 35°27' E 139°39'0 0.0
2015-Mar-31 20:33N 35°27' E 139°39'0 0.0
2015-Mar-31 19:33N 35°27' E 139°39'0 0.0
2015-Mar-31 18:34N 35°27' E 139°39'0 0.0
2015-Mar-31 17:33N 35°27' E 139°39'0 0.0
2015-Mar-31 16:34N 35°27' E 139°39'0 0.0
2015-Mar-31 15:33N 35°27' E 139°39'0 0.0
2015-Mar-31 14:33N 35°27' E 139°39'0 0.0
2015-Mar-31 13:34N 35°27' E 139°39'0 0.0
2015-Mar-31 12:34N 35°27' E 139°39'0 0.0
2015-Mar-31 11:33N 35°27' E 139°39'0 0.0
2015-Mar-31 10:33N 35°27' E 139°39'0 0.0
2015-Mar-31 09:33N 35°27' E 139°39'0 0.0
2015-Mar-31 08:33N 35°27' E 139°39'0 0.0
2015-Mar-31 07:33N 35°27' E 139°39'1 0.8
2015-Mar-31 06:33N 35°28' E 139°40'1 1.0
2015-Mar-31 05:33N 35°27' E 139°41'1 0.8
2015-Mar-31 04:33N 35°27' E 139°41'3 3.0
2015-Mar-31 03:33N 35°28' E 139°44'4 3.7
2015-Mar-31 02:34N 35°27' E 139°40'1 1.0
2015-Mar-31 01:34N 35°27' E 139°39'4 4.0
2015-Mar-31 00:34N 35°27' E 139°43'3 3.1
2015-Mar-30 23:33N 35°30' E 139°45'5 4.5
2015-Mar-30 22:33N 35°27' E 139°41'2 2.2
2015-Mar-30 21:34N 35°27' E 139°39'0 0.0
2015-Mar-30 07:10N 35°27' E 139°39'0 0.0
2015-Mar-30 06:33N 35°27' E 139°39'0 0.0
2015-Mar-30 05:34N 35°27' E 139°39'0 0.0
2015-Mar-30 04:33N 35°27' E 139°39'2 1.6
2015-Mar-30 03:34N 35°27' E 139°41'3 2.9
2015-Mar-30 02:33N 35°25' E 139°43'1 1.4
2015-Mar-30 01:34N 35°26' E 139°42'0 0.0
2015-Mar-30 00:34N 35°26' E 139°42'0 0.1
2015-Mar-29 23:33N 35°26' E 139°42'0 0.0
2015-Mar-29 22:34N 35°26' E 139°42'1 0.9
2015-Mar-29 21:34N 35°27' E 139°42'2 1.7
2015-Mar-29 20:34N 35°27' E 139°40'1 0.8
2015-Mar-29 19:33N 35°27' E 139°39'0 0.0
2015-Mar-29 18:33N 35°27' E 139°39'0 0.0
2015-Mar-29 17:33N 35°27' E 139°39'0 0.0
2015-Mar-29 16:33N 35°27' E 139°39'0 0.0
2015-Mar-29 15:33N 35°27' E 139°39'0 0.0
2015-Mar-29 14:33N 35°27' E 139°39'0 0.0
2015-Mar-29 13:33N 35°27' E 139°39'0 0.0
2015-Mar-29 12:33N 35°27' E 139°39'0 0.0
2015-Mar-29 11:33N 35°27' E 139°39'0 0.0
2015-Mar-29 10:33N 35°27' E 139°39'0 0.0
2015-Mar-29 09:33N 35°27' E 139°39'0 0.0
2015-Mar-29 08:33N 35°27' E 139°39'7 6.6
2015-Mar-29 07:33N 35°30' E 139°46'0 0.3
2015-Mar-29 06:34N 35°30' E 139°46'0 0.1
2015-Mar-29 05:34N 35°30' E 139°47'6 6.0
2015-Mar-29 04:29N 35°27' E 139°39'0 0.1
2015-Mar-29 03:33N 35°27' E 139°39'0 0.1
2015-Mar-29 02:34N 35°27' E 139°39'8 8.2
2015-Mar-29 01:33N 35°30' E 139°49'8 7.7
2015-Mar-29 00:33N 35°28' E 139°58'2 2.1
2015-Mar-28 23:33N 35°29' E 139°56'1211.9
2015-Mar-28 22:33N 35°27' E 139°41'2 0.1
2015-Mar-27 22:34N 35°27' E 139°39'2 2.0
2015-Mar-27 21:33N 35°27' E 139°41'1 0.7
2015-Mar-27 20:33N 35°27' E 139°42'1 1.4
2015-Mar-27 19:33N 35°28' E 139°43'3 3.3
2015-Mar-27 18:33N 35°27' E 139°39'0 0.0
2015-Mar-27 17:33N 35°27' E 139°39'0 0.0
2015-Mar-27 16:33N 35°27' E 139°39'0 0.0
2015-Mar-27 15:33N 35°27' E 139°39'0 0.0
2015-Mar-27 14:33N 35°27' E 139°39'0 0.0
2015-Mar-27 13:33N 35°27' E 139°39'0 0.0
2015-Mar-27 12:33N 35°27' E 139°39'0 0.0
2015-Mar-27 11:33N 35°27' E 139°39'0 0.4
2015-Mar-27 10:33N 35°28' E 139°39'3 3.4
2015-Mar-27 09:33N 35°26' E 139°43'1 0.5
2015-Mar-27 08:33N 35°27' E 139°43'0 0.0
2015-Mar-27 07:33N 35°27' E 139°43'0 0.0
2015-Mar-27 06:34N 35°27' E 139°43'2 1.6
2015-Mar-27 05:34N 35°26' E 139°41'2 2.1
2015-Mar-27 04:33N 35°27' E 139°39'0 0.0
2015-Mar-27 03:33N 35°27' E 139°39'0 0.0
2015-Mar-27 02:33N 35°27' E 139°39'0 0.0
2015-Mar-27 01:33N 35°27' E 139°39'0 0.0
2015-Mar-27 00:33N 35°27' E 139°39'3 3.4
2015-Mar-26 23:33N 35°28' E 139°43'2 1.6
2015-Mar-26 22:33N 35°27' E 139°43'4 3.9
2015-Mar-26 21:33N 35°27' E 139°39'0 0.0
2015-Mar-26 20:33N 35°27' E 139°39'0 0.0
2015-Mar-26 10:32N 35°27' E 139°39'3 3.5
2015-Mar-26 09:32N 35°26' E 139°42'1 1.0
2015-Mar-26 08:33N 35°27' E 139°42'1 0.6
2015-Mar-26 07:33N 35°27' E 139°41'2 2.2
2015-Mar-26 06:33N 35°27' E 139°39'0 0.0
2015-Mar-26 05:33N 35°27' E 139°39'0 0.0
2015-Mar-26 04:33N 35°27' E 139°39'0 0.0
2015-Mar-26 03:33N 35°27' E 139°39'0 0.0
2015-Mar-26 02:33N 35°27' E 139°39'0 0.0
2015-Mar-26 01:33N 35°27' E 139°39'4 4.0
2015-Mar-26 00:33N 35°28' E 139°43'3 2.5
2015-Mar-25 23:33N 35°27' E 139°40'1 1.0
2015-Mar-25 22:05N 35°27' E 139°39'0 0.0
2015-Mar-25 21:33N 35°27' E 139°39'0 0.0
2015-Mar-25 20:33N 35°27' E 139°39'0 0.0
2015-Mar-25 19:33N 35°27' E 139°39'0 0.0
2015-Mar-25 18:33N 35°27' E 139°39'0 0.0
2015-Mar-25 17:33N 35°27' E 139°39'0 0.0
2015-Mar-25 16:33N 35°27' E 139°39'0 0.0
2015-Mar-25 15:33N 35°27' E 139°39'0 0.0
2015-Mar-25 14:33N 35°27' E 139°39'0 0.0
2015-Mar-25 13:10N 35°27' E 139°39'0 0.0
2015-Mar-25 12:33N 35°27' E 139°39'0 0.0
2015-Mar-25 11:34N 35°27' E 139°39'0 0.0
2015-Mar-25 10:34N 35°27' E 139°39'0 0.0
2015-Mar-25 09:33N 35°27' E 139°39'0 0.0
2015-Mar-25 08:34N 35°27' E 139°39'0 0.0
2015-Mar-25 07:33N 35°27' E 139°39'0 0.0
2015-Mar-25 06:33N 35°27' E 139°39'0 0.0
2015-Mar-25 05:34N 35°27' E 139°39'0 0.0
2015-Mar-25 04:33N 35°27' E 139°39'0 0.0
2015-Mar-25 03:34N 35°27' E 139°39'0 0.0
2015-Mar-25 02:33N 35°27' E 139°39'3 2.6
2015-Mar-25 01:33N 35°27' E 139°42'4 3.9
2015-Mar-25 00:33N 35°24' E 139°38'0 0.3
2015-Mar-24 23:33N 35°24' E 139°38'3 3.3
2015-Mar-24 22:33N 35°27' E 139°40'4 4.4
2015-Mar-24 21:33N 35°29' E 139°45'3 2.7
2015-Mar-24 20:34N 35°28' E 139°42'1 1.5
2015-Mar-24 19:34N 35°27' E 139°43'3 2.8
2015-Mar-24 18:33N 35°27' E 139°39'0 0.0
2015-Mar-24 17:33N 35°27' E 139°39'6 6.2
2015-Mar-24 16:34N 35°30' E 139°46'0 0.1
2015-Mar-24 15:33N 35°30' E 139°46'7 7.3
2015-Mar-24 14:34N 35°24' E 139°41'0 0.1
2015-Mar-24 13:34N 35°24' E 139°41'1 0.9
2015-Mar-24 12:33N 35°23' E 139°40'3 2.7
2015-Mar-24 11:33N 35°26' E 139°41'1 1.2
2015-Mar-24 10:33N 35°26' E 139°42'2 1.7
2015-Mar-24 09:34N 35°26' E 139°44'1 0.9
2015-Mar-24 08:33N 35°27' E 139°44'3 2.6
2015-Mar-24 07:33N 35°27' E 139°40'1 0.8
2015-Mar-24 06:33N 35°27' E 139°39'0 0.0
2015-Mar-24 05:33N 35°27' E 139°39'1 0.9
2015-Mar-24 04:33N 35°27' E 139°40'2 1.6
2015-Mar-24 03:34N 35°27' E 139°39'0 0.2
2015-Mar-24 02:33N 35°27' E 139°39'0 0.0
2015-Mar-24 01:34N 35°27' E 139°39'0 0.0
2015-Mar-24 00:33N 35°27' E 139°39'0 0.0
2015-Mar-23 23:34N 35°27' E 139°39'0 0.0
2015-Mar-23 22:33N 35°27' E 139°39'0 0.0
2015-Mar-23 06:30N 35°27' E 139°39'0 0.0
2015-Mar-23 05:33N 35°27' E 139°39'0 0.0
2015-Mar-23 04:33N 35°27' E 139°39'0 0.0
2015-Mar-23 03:33N 35°27' E 139°39'0 0.0
2015-Mar-23 02:33N 35°27' E 139°39'3 2.9
2015-Mar-23 01:33N 35°26' E 139°42'  

Dump ship's entire track history